Time;durP1;ratioP1;P1;durP2;ratioP2;P2;SDS_P1;SDS_P2;PMS_P1;PMS_P2;Temp;Humidity;BMP_temperature;BMP_pressure;BME280_temperature;BME280_humidity;BME280_pressure;Samples;Min_cycle;Max_cycle;Signal;HPM_P1;HPM_P2
2023/05/30 00:02:45;;;;;;;2.40;1.13;;;;;;;14.79;42.49;100545.75;10551354;27;20063;-59
2023/05/30 00:07:47;;;;;;;3.17;1.38;;;;;;;14.81;42.60;100546.50;10526500;28;20529;-58
2023/05/30 00:12:49;;;;;;;3.95;1.30;;;;;;;14.92;42.54;100545.78;10549792;28;20052;-59
2023/05/30 00:17:54;;;;;;;3.88;1.30;;;;;;;15.15;42.51;100534.47;10525727;28;21136;-58
2023/05/30 00:23:00;;;;;;;3.05;1.30;;;;;;;15.24;43.16;100529.44;10550203;28;20083;-59
2023/05/30 00:28:06;;;;;;;3.75;1.42;;;;;;;15.16;42.41;100526.47;10517874;28;20047;-59
2023/05/30 00:33:10;;;;;;;2.22;1.30;;;;;;;15.00;42.66;100527.66;10550517;27;20052;-58
2023/05/30 00:38:12;;;;;;;3.33;1.50;;;;;;;14.93;42.40;100524.59;10543365;28;20043;-59
2023/05/30 00:43:15;;;;;;;3.05;1.17;;;;;;;14.85;42.00;100537.44;10530883;28;20043;-58
2023/05/30 00:48:17;;;;;;;2.28;1.20;;;;;;;14.87;41.84;100542.59;10525222;28;20043;-59
2023/05/30 00:53:22;;;;;;;3.80;1.25;;;;;;;14.62;41.96;100534.63;10507715;28;20050;-58
2023/05/30 00:58:25;;;;;;;3.78;1.27;;;;;;;14.58;42.18;100534.84;10518656;28;20570;-59
2023/05/30 01:03:32;;;;;;;3.45;1.33;;;;;;;14.52;42.76;100534.41;10529866;28;20059;-59
2023/05/30 01:08:35;;;;;;;3.05;1.30;;;;;;;14.48;42.26;100517.13;10540738;28;20039;-59
2023/05/30 01:14:22;;;;;;;2.10;1.20;;;;;;;14.43;42.81;100519.22;10530074;28;20047;-59
2023/05/30 01:19:46;;;;;;;3.35;1.20;;;;;;;14.40;42.52;100517.63;10425080;28;20423;-59
2023/05/30 01:25:29;;;;;;;6.47;1.50;;;;;;;14.37;43.18;100546.75;10555093;28;20054;-59
2023/05/30 01:30:37;;;;;;;3.08;1.05;;;;;;;14.34;43.23;100546.97;10532052;28;20888;-58
2023/05/30 01:35:43;;;;;;;2.33;1.10;;;;;;;14.39;43.12;100539.59;10536104;28;20055;-58
2023/05/30 01:41:10;;;;;;;2.20;1.02;;;;;;;14.01;43.47;100546.53;10553355;28;20047;-58
2023/05/30 01:46:36;;;;;;;2.20;1.20;;;;;;;13.84;44.14;100546.75;10518040;28;20060;-58
2023/05/30 01:51:47;;;;;;;3.20;1.52;;;;;;;13.88;44.30;100552.69;10555501;28;20051;-59
2023/05/30 01:56:53;;;;;;;4.30;1.38;;;;;;;13.49;44.49;100562.13;10549865;28;20054;-58
2023/05/30 02:01:56;;;;;;;2.45;1.20;;;;;;;13.28;44.53;100563.38;10537393;28;20060;-58
2023/05/30 02:06:58;;;;;;;3.95;1.33;;;;;;;13.17;44.74;100567.63;10557178;28;20047;-59
2023/05/30 02:12:02;;;;;;;5.60;1.20;;;;;;;13.00;44.82;100567.78;10541901;28;20053;-59
2023/05/30 02:17:05;;;;;;;2.88;1.33;;;;;;;13.00;45.26;100576.50;10558140;27;20161;-59
2023/05/30 02:22:09;;;;;;;3.60;1.17;;;;;;;12.89;45.26;100576.28;10542710;28;20055;-59
2023/05/30 02:27:11;;;;;;;5.15;1.70;;;;;;;12.89;45.65;100571.88;10556074;28;20188;-59
2023/05/30 02:32:13;;;;;;;4.38;1.23;;;;;;;12.88;45.74;100569.34;10560883;28;20081;-58
2023/05/30 02:37:15;;;;;;;7.35;2.13;;;;;;;12.60;45.85;100571.91;10537366;28;20036;-58
2023/05/30 02:42:17;;;;;;;6.72;1.48;;;;;;;12.60;46.20;100569.28;10559802;28;20047;-58
2023/05/30 02:47:19;;;;;;;4.05;1.17;;;;;;;12.43;46.41;100572.00;10520493;28;20419;-58
2023/05/30 02:52:21;;;;;;;2.45;1.17;;;;;;;12.18;46.67;100572.53;10541612;28;20044;-58
2023/05/30 02:57:34;;;;;;;2.13;1.27;;;;;;;12.02;47.24;100569.06;10536582;28;20056;-58
2023/05/30 03:02:39;;;;;;;4.60;1.23;;;;;;;12.00;47.46;100570.94;10555772;28;20527;-59
2023/05/30 03:07:45;;;;;;;5.10;1.48;;;;;;;11.84;47.60;100573.56;10530579;28;20810;-58
2023/05/30 03:12:47;;;;;;;2.17;1.13;;;;;;;11.82;48.08;100577.19;10516791;28;20039;-58
2023/05/30 03:17:49;;;;;;;2.70;1.23;;;;;;;11.89;48.00;100578.53;10513026;28;20073;-58
2023/05/30 03:22:51;;;;;;;5.60;1.27;;;;;;;11.80;48.48;100584.28;10530670;27;20047;-59
2023/05/30 03:27:54;;;;;;;2.97;1.10;;;;;;;11.91;48.57;100581.91;10530153;28;20052;-59
2023/05/30 03:32:59;;;;;;;2.78;1.20;;;;;;;11.93;48.70;100587.91;10533299;28;20051;-58
2023/05/30 03:38:03;;;;;;;4.88;1.33;;;;;;;11.97;48.88;100589.44;10512293;28;20572;-58
2023/05/30 03:43:05;;;;;;;2.13;1.30;;;;;;;12.12;48.91;100593.84;10521420;28;20043;-58
2023/05/30 03:48:07;;;;;;;2.15;1.20;;;;;;;12.02;49.13;100597.91;10528128;28;20403;-59
2023/05/30 03:53:09;;;;;;;2.65;1.10;;;;;;;11.91;49.65;100600.25;10550919;28;20067;-58
2023/05/30 03:58:11;;;;;;;2.70;1.48;;;;;;;12.22;49.40;100605.50;10541547;27;20140;-58
2023/05/30 04:03:13;;;;;;;5.93;1.52;;;;;;;12.47;49.27;100612.88;10548548;28;20052;-59
2023/05/30 04:08:16;;;;;;;1.98;1.20;;;;;;;12.49;49.11;100613.63;10526463;28;20047;-58
2023/05/30 04:13:18;;;;;;;3.25;1.55;;;;;;;12.66;48.89;100616.97;10527010;27;20618;-58
2023/05/30 04:18:22;;;;;;;4.25;1.60;;;;;;;13.52;47.62;100621.50;10518452;28;20611;-59
2023/05/30 04:23:25;;;;;;;2.60;1.05;;;;;;;14.53;46.08;100623.81;10531895;28;20044;-58
2023/05/30 04:28:27;;;;;;;3.17;1.38;;;;;;;15.51;44.89;100618.13;10527135;28;20423;-58
2023/05/30 04:33:34;;;;;;;2.95;1.35;;;;;;;16.47;43.63;100615.59;10526276;28;20059;-58
2023/05/30 04:38:37;;;;;;;3.15;1.40;;;;;;;17.04;42.56;100624.44;10527944;28;20058;-59
2023/05/30 04:43:39;;;;;;;5.70;1.35;;;;;;;17.33;42.14;100620.47;10526987;28;20770;-59
2023/05/30 04:48:41;;;;;;;3.03;1.40;;;;;;;18.55;40.38;100623.03;10510938;28;20046;-59
2023/05/30 04:53:43;;;;;;;4.47;1.48;;;;;;;19.10;39.65;100614.88;10531417;28;20039;-59
2023/05/30 04:58:51;;;;;;;4.25;1.38;;;;;;;19.52;39.13;100609.53;10540991;28;20058;-59
2023/05/30 05:03:53;;;;;;;4.55;1.30;;;;;;;20.57;37.71;100616.03;10528767;28;20079;-59
2023/05/30 05:08:55;;;;;;;2.05;1.30;;;;;;;21.71;36.35;100620.41;10545892;28;20071;-59
2023/05/30 05:13:59;;;;;;;2.83;1.20;;;;;;;23.60;34.42;100609.44;10548838;28;20059;-59
2023/05/30 05:19:02;;;;;;;3.67;1.30;;;;;;;24.98;32.15;100609.69;10545786;28;20043;-60
2023/05/30 05:24:04;;;;;;;4.07;1.50;;;;;;;24.01;32.19;100615.81;10549632;28;20047;-59
2023/05/30 05:29:06;;;;;;;2.15;1.30;;;;;;;22.26;33.15;100620.44;10544466;28;20510;-59
2023/05/30 05:34:08;;;;;;;5.07;1.30;;;;;;;20.78;34.70;100622.09;10549550;28;20514;-59
2023/05/30 05:39:10;;;;;;;3.38;1.30;;;;;;;19.68;35.24;100621.38;10544334;28;20514;-59
2023/05/30 05:44:12;;;;;;;3.85;1.20;;;;;;;18.62;36.53;100630.38;10548796;28;20054;-58
2023/05/30 05:49:14;;;;;;;3.83;1.30;;;;;;;17.76;36.84;100634.72;10543635;28;20437;-59
2023/05/30 05:54:16;;;;;;;3.10;1.30;;;;;;;16.72;37.67;100639.22;10548010;28;20936;-59
2023/05/30 05:59:18;;;;;;;1.95;1.13;;;;;;;16.17;38.57;100648.50;10539973;28;20046;-59
2023/05/30 06:04:20;;;;;;;4.95;1.23;;;;;;;16.16;38.49;100654.72;10500909;28;20510;-59
2023/05/30 06:09:24;;;;;;;2.95;1.35;;;;;;;16.34;38.62;100651.72;10506106;28;20040;-59
2023/05/30 06:14:26;;;;;;;3.42;1.42;;;;;;;16.64;38.31;100645.09;10494754;28;20055;-59
2023/05/30 06:19:28;;;;;;;3.03;1.50;;;;;;;16.78;38.69;100649.34;10507211;28;20460;-59
2023/05/30 06:24:31;;;;;;;3.15;1.02;;;;;;;16.58;38.81;100649.97;10508753;28;20048;-59
2023/05/30 06:29:34;;;;;;;5.07;1.25;;;;;;;16.98;38.15;100656.63;10505937;28;20052;-58
2023/05/30 06:34:37;;;;;;;1.77;1.13;;;;;;;16.96;37.89;100653.25;10511497;28;20056;-59
2023/05/30 06:39:39;;;;;;;2.05;0.95;;;;;;;16.97;38.21;100657.59;10509075;28;20044;-59
2023/05/30 06:44:41;;;;;;;2.47;1.08;;;;;;;17.47;37.61;100670.50;10505247;28;20074;-59
2023/05/30 06:49:43;;;;;;;5.75;1.10;;;;;;;17.57;36.96;100671.47;10507100;28;20039;-59
2023/05/30 06:54:46;;;;;;;1.73;0.90;;;;;;;17.82;36.54;100665.97;10506992;28;20048;-59
2023/05/30 06:59:48;;;;;;;1.85;0.98;;;;;;;17.61;36.34;100665.00;10514110;28;20052;-59
2023/05/30 07:04:50;;;;;;;3.85;1.35;;;;;;;17.50;36.81;100670.28;10552285;27;20050;-58
2023/05/30 07:09:52;;;;;;;3.60;1.35;;;;;;;17.83;35.91;100677.41;10548754;28;20044;-59
2023/05/30 07:14:54;;;;;;;3.72;0.93;;;;;;;17.80;36.08;100673.19;10553704;28;20077;-59
2023/05/30 07:19:55;;;;;;;2.55;1.15;;;;;;;18.72;34.64;100654.31;10530734;28;20047;-59
2023/05/30 07:24:57;;;;;;;4.07;1.45;;;;;;;19.35;33.95;100659.59;10553359;27;20044;-59
2023/05/30 07:30:00;;;;;;;2.88;1.10;;;;;;;19.36;34.70;100657.75;10539975;28;20043;-59
2023/05/30 07:35:02;;;;;;;2.83;1.10;;;;;;;20.69;33.56;100659.28;10550106;28;20047;-59
2023/05/30 07:40:05;;;;;;;3.15;1.33;;;;;;;21.19;31.75;100667.97;10550322;28;20575;-59
2023/05/30 07:45:07;;;;;;;2.45;0.95;;;;;;;21.12;31.66;100665.03;10547039;27;20102;-59
2023/05/30 07:50:10;;;;;;;3.47;1.45;;;;;;;21.44;32.31;100654.09;10543941;28;20047;-59
2023/05/30 07:55:12;;;;;;;2.03;1.17;;;;;;;21.64;30.63;100656.56;10527285;27;20050;-59
2023/05/30 08:00:15;;;;;;;2.42;1.00;;;;;;;22.36;30.94;100648.69;10525905;27;20055;-59
2023/05/30 08:05:17;;;;;;;7.38;1.40;;;;;;;22.48;29.98;100642.16;10543591;27;20039;-60
2023/05/30 08:10:19;;;;;;;4.95;1.38;;;;;;;22.26;29.83;100642.59;10537348;28;20043;-60
2023/05/30 08:15:21;;;;;;;3.13;1.30;;;;;;;22.64;29.24;100639.66;10546201;28;20052;-59
2023/05/30 08:20:24;;;;;;;2.70;1.17;;;;;;;23.19;29.19;100631.50;10545627;28;20051;-60
2023/05/30 08:25:32;;;;;;;2.13;0.98;;;;;;;23.07;28.51;100638.91;10545182;28;20040;-60
2023/05/30 08:30:34;;;;;;;2.90;1.20;;;;;;;22.72;28.89;100635.41;10545182;28;20051;-60
2023/05/30 08:35:37;;;;;;;2.80;1.13;;;;;;;23.32;27.93;100638.13;10528323;28;20056;-59
2023/05/30 08:40:42;;;;;;;3.55;1.40;;;;;;;23.84;28.03;100622.09;10528976;28;20056;-60
2023/05/30 08:45:46;;;;;;;2.20;1.33;;;;;;;23.14;26.71;100633.81;10545031;28;21400;-60
2023/05/30 08:50:49;;;;;;;1.90;1.23;;;;;;;22.96;28.37;100631.16;10545323;28;20503;-59
2023/05/30 08:56:13;;;;;;;2.85;1.15;;;;;;;22.99;26.95;100635.34;10544566;28;20054;-59
2023/05/30 09:01:15;;;;;;;3.30;1.15;;;;;;;22.85;28.34;100623.41;10545445;28;20415;-60
2023/05/30 09:06:18;;;;;;;2.97;1.10;;;;;;;23.83;27.01;100629.28;10541109;28;20082;-59
2023/05/30 09:11:23;;;;;;;3.10;1.35;;;;;;;23.13;26.92;100637.44;10544365;28;20054;-60
2023/05/30 09:16:25;;;;;;;1.67;1.08;;;;;;;23.34;27.37;100620.13;10525299;28;20050;-60
2023/05/30 09:21:27;;;;;;;3.30;1.30;;;;;;;23.85;27.20;100616.59;10542131;28;20140;-59
2023/05/30 09:26:30;;;;;;;2.55;1.10;;;;;;;23.59;26.88;100617.63;10544505;28;20593;-59
2023/05/30 09:31:32;;;;;;;2.13;0.88;;;;;;;23.52;27.08;100606.72;10546648;28;20403;-59
2023/05/30 09:36:33;;;;;;;1.90;0.95;;;;;;;23.77;27.21;100605.88;10508811;28;20080;-59
2023/05/30 09:41:35;;;;;;;1.52;1.00;;;;;;;23.43;27.70;100607.69;10528847;28;20047;-59
2023/05/30 09:46:38;;;;;;;2.90;1.10;;;;;;;24.13;26.91;100598.50;10551108;28;20059;-59
2023/05/30 09:51:41;;;;;;;2.08;1.23;;;;;;;24.21;25.80;100601.22;10553911;28;20035;-59
2023/05/30 09:56:43;;;;;;;1.92;1.00;;;;;;;23.71;26.81;100598.50;10553039;28;20059;-59
2023/05/30 10:01:48;;;;;;;2.35;1.00;;;;;;;23.66;26.78;100600.78;10553547;28;20059;-59
2023/05/30 10:06:52;;;;;;;2.30;1.00;;;;;;;23.52;26.15;100601.38;10550545;27;20048;-60
2023/05/30 10:11:56;;;;;;;2.10;1.10;;;;;;;23.25;26.19;100601.50;10551341;28;20415;-59
2023/05/30 10:17:09;;;;;;;2.63;1.30;;;;;;;23.03;24.60;100592.19;10552393;28;20058;-59
2023/05/30 10:22:13;;;;;;;2.92;1.05;;;;;;;23.18;26.16;100592.47;10523212;28;20051;-59
2023/05/30 10:27:21;;;;;;;3.00;1.30;;;;;;;23.34;25.90;100590.75;10548802;28;20754;-59
2023/05/30 10:32:26;;;;;;;1.70;1.02;;;;;;;23.17;25.36;100582.78;10547631;27;20388;-59
2023/05/30 10:37:28;;;;;;;2.97;1.00;;;;;;;22.52;25.50;100582.22;10531639;28;20055;-59
2023/05/30 10:42:39;;;;;;;4.07;1.27;;;;;;;22.27;24.04;100574.16;10553425;28;20059;-59
2023/05/30 10:48:04;;;;;;;1.60;0.80;;;;;;;22.38;25.12;100566.78;10550354;28;20106;-59
2023/05/30 10:53:17;;;;;;;1.45;0.95;;;;;;;22.00;26.56;100571.47;10553121;28;20047;-59
2023/05/30 10:58:42;;;;;;;2.38;0.95;;;;;;;21.73;25.89;100561.66;10549802;28;20141;-59
2023/05/30 11:03:45;;;;;;;1.15;0.80;;;;;;;22.26;25.86;100557.31;10552230;28;20317;-59
2023/05/30 11:08:51;;;;;;;2.92;1.15;;;;;;;22.01;25.50;100555.34;10548891;28;20708;-59
2023/05/30 11:13:55;;;;;;;3.10;1.10;;;;;;;21.82;26.66;100550.97;10550209;28;20407;-59
2023/05/30 11:19:10;;;;;;;1.67;0.90;;;;;;;21.85;25.63;100550.69;10549400;28;20051;-59
2023/05/30 11:24:16;;;;;;;4.60;1.20;;;;;;;21.65;25.70;100553.59;10552244;28;20058;-59
2023/05/30 11:29:51;;;;;;;3.25;1.40;;;;;;;21.54;26.08;100537.78;10547393;28;20043;-59
2023/05/30 11:35:01;;;;;;;1.95;0.98;;;;;;;21.71;25.61;100532.53;10551014;28;20148;-59
2023/05/30 11:40:12;;;;;;;2.30;0.93;;;;;;;21.48;24.82;100539.22;10549147;28;20051;-59
2023/05/30 11:45:15;;;;;;;3.05;1.45;;;;;;;21.65;25.65;100518.97;10550709;28;20054;-59
2023/05/30 11:50:18;;;;;;;3.88;1.08;;;;;;;21.37;25.34;100510.16;10546411;28;20499;-59
2023/05/30 11:55:22;;;;;;;2.53;1.38;;;;;;;21.64;26.75;100515.47;10550117;28;20054;-59
2023/05/30 12:00:24;;;;;;;2.85;1.33;;;;;;;21.64;25.39;100517.31;10547514;28;20051;-59
2023/05/30 12:05:28;;;;;;;2.28;1.10;;;;;;;21.82;26.59;100510.19;10518222;28;20051;-59
2023/05/30 12:10:30;;;;;;;2.05;1.30;;;;;;;22.09;26.49;100504.03;10544218;28;20195;-59
2023/05/30 12:15:32;;;;;;;1.65;1.17;;;;;;;22.26;26.77;100508.50;10546615;28;20050;-59
2023/05/30 12:20:44;;;;;;;1.58;1.13;;;;;;;22.30;26.52;100504.56;10542152;28;20063;-59
2023/05/30 12:25:51;;;;;;;1.92;0.88;;;;;;;21.83;26.20;100501.22;10547444;28;20499;-59
2023/05/30 12:30:54;;;;;;;1.80;1.00;;;;;;;21.73;26.67;100484.47;10545990;28;20048;-59
2023/05/30 12:35:57;;;;;;;2.13;1.08;;;;;;;22.37;26.32;100484.31;10539922;27;20462;-59
2023/05/30 12:40:59;;;;;;;3.63;1.10;;;;;;;22.16;26.37;100481.94;10543268;28;20487;-59
2023/05/30 12:46:08;;;;;;;3.38;1.00;;;;;;;22.29;26.43;100477.06;10547096;28;20054;-59
2023/05/30 12:51:10;;;;;;;1.55;0.80;;;;;;;22.52;27.10;100486.25;10545188;28;20039;-59
2023/05/30 12:56:13;;;;;;;2.90;1.20;;;;;;;22.79;26.76;100472.00;10543515;28;20066;-59
2023/05/30 13:01:15;;;;;;;3.70;1.25;;;;;;;22.34;27.08;100476.59;10548015;27;20040;-59
2023/05/30 13:06:17;;;;;;;1.65;0.90;;;;;;;22.31;26.97;100490.25;10545092;28;20059;-59
2023/05/30 13:11:20;;;;;;;2.63;1.08;;;;;;;22.13;27.20;100460.94;10546699;28;20065;-59
2023/05/30 13:16:22;;;;;;;2.03;1.05;;;;;;;22.15;27.47;100452.81;10543614;28;20039;-59
2023/05/30 13:21:25;;;;;;;2.53;1.20;;;;;;;22.53;27.87;100455.97;10557370;28;20044;-58
2023/05/30 13:26:27;;;;;;;2.08;1.20;;;;;;;22.45;27.78;100466.53;10554199;28;20043;-59
2023/05/30 13:31:29;;;;;;;3.13;1.17;;;;;;;22.42;27.91;100450.00;10556492;27;20071;-59
2023/05/30 13:36:31;;;;;;;2.80;1.20;;;;;;;22.76;27.75;100445.63;10519426;27;20316;-59
2023/05/30 13:41:34;;;;;;;1.95;0.90;;;;;;;22.65;27.05;100446.72;10550815;27;20047;-59
2023/05/30 13:46:36;;;;;;;1.90;1.00;;;;;;;22.64;27.27;100450.34;10551491;27;20047;-59
2023/05/30 13:51:39;;;;;;;2.20;1.10;;;;;;;22.69;27.61;100444.56;10555383;28;20046;-59
2023/05/30 13:56:41;;;;;;;1.40;1.02;;;;;;;22.60;28.11;100446.31;10552622;28;20054;-59
2023/05/30 14:01:43;;;;;;;2.13;1.17;;;;;;;22.66;28.48;100439.53;10533771;28;20043;-59
2023/05/30 14:06:50;;;;;;;1.98;1.08;;;;;;;22.57;28.09;100441.31;10554330;28;20066;-59
2023/05/30 14:11:52;;;;;;;2.17;1.20;;;;;;;22.91;28.21;100448.56;10534772;27;20124;-59
2023/05/30 14:16:54;;;;;;;3.13;1.20;;;;;;;22.91;28.37;100441.41;10549363;27;20419;-59
2023/05/30 14:21:56;;;;;;;2.55;1.15;;;;;;;22.89;27.86;100445.19;10534696;27;20036;-59
2023/05/30 14:26:58;;;;;;;2.13;1.10;;;;;;;22.91;28.41;100436.06;10550728;28;20046;-59
2023/05/30 14:32:00;;;;;;;5.00;1.52;;;;;;;22.68;28.56;100437.53;10553966;28;20043;-59
2023/05/30 14:37:03;;;;;;;4.80;1.17;;;;;;;22.99;28.49;100419.25;10549850;27;20055;-59
2023/05/30 14:42:06;;;;;;;2.05;1.27;;;;;;;23.09;28.16;100423.47;10534249;28;21512;-59
2023/05/30 14:47:08;;;;;;;2.60;1.20;;;;;;;22.81;27.61;100423.81;10545327;27;20392;-59
2023/05/30 14:52:11;;;;;;;2.63;1.48;;;;;;;22.74;27.56;100422.78;10544186;27;20035;-59
2023/05/30 14:57:13;;;;;;;2.42;1.40;;;;;;;22.43;27.13;100425.88;10545937;28;20051;-59
2023/05/30 15:02:15;;;;;;;3.40;1.48;;;;;;;22.15;27.83;100432.31;10545422;27;20044;-59
2023/05/30 15:07:17;;;;;;;2.08;1.20;;;;;;;22.28;27.70;100429.25;10547281;28;20039;-60
2023/05/30 15:12:20;;;;;;;1.55;1.00;;;;;;;22.33;26.79;100430.47;10548334;28;20054;-60
2023/05/30 15:17:22;;;;;;;2.72;1.13;;;;;;;22.36;27.47;100435.50;10540020;27;20047;-59
2023/05/30 15:22:24;;;;;;;3.35;1.30;;;;;;;22.46;26.85;100428.25;10545687;27;20051;-60
2023/05/30 15:27:26;;;;;;;1.95;1.13;;;;;;;22.37;27.33;100436.34;10548998;28;20054;-59
2023/05/30 15:32:27;;;;;;;2.78;1.20;;;;;;;22.41;27.67;100432.38;10544307;27;20058;-60
2023/05/30 15:37:29;;;;;;;2.15;1.02;;;;;;;22.20;27.32;100439.84;10549850;28;20667;-60
2023/05/30 15:42:31;;;;;;;4.25;1.27;;;;;;;22.43;27.73;100420.53;10550794;28;20442;-60
2023/05/30 15:47:33;;;;;;;4.75;1.30;;;;;;;22.35;27.55;100444.47;10523287;28;20047;-60
2023/05/30 15:52:35;;;;;;;1.83;1.15;;;;;;;22.16;27.96;100433.16;10549763;28;20120;-60
2023/05/30 15:57:37;;;;;;;2.35;1.13;;;;;;;22.30;27.83;100429.94;10547143;28;20058;-60
2023/05/30 16:02:40;;;;;;;4.57;1.10;;;;;;;21.92;27.26;100431.09;10530203;28;20050;-60
2023/05/30 16:07:42;;;;;;;2.53;1.40;;;;;;;21.91;27.44;100418.75;10547163;28;20063;-60
2023/05/30 16:12:44;;;;;;;1.98;1.10;;;;;;;21.85;27.56;100417.53;10545044;27;20050;-60
2023/05/30 16:17:46;;;;;;;1.50;1.00;;;;;;;21.82;28.15;100419.66;10536398;27;21179;-60
2023/05/30 16:22:48;;;;;;;2.55;1.33;;;;;;;21.81;28.37;100408.16;10530631;28;20391;-60
2023/05/30 16:27:50;;;;;;;1.98;1.15;;;;;;;21.84;28.51;100412.38;10546679;28;20051;-59
2023/05/30 16:32:52;;;;;;;1.70;1.08;;;;;;;21.84;28.84;100415.84;10512977;28;20043;-60
2023/05/30 16:37:54;;;;;;;2.42;1.40;;;;;;;21.95;28.82;100419.25;10539087;28;20051;-60
2023/05/30 16:42:56;;;;;;;2.20;1.20;;;;;;;21.86;29.19;100415.72;10529511;27;20044;-59
2023/05/30 16:47:58;;;;;;;4.93;1.60;;;;;;;21.60;29.12;100415.59;10545505;28;20076;-59
2023/05/30 16:53:00;;;;;;;2.85;1.50;;;;;;;21.72;29.44;100416.25;10526468;28;20091;-60
2023/05/30 16:58:02;;;;;;;3.50;1.75;;;;;;;21.87;29.32;100412.03;10539405;28;20066;-59
2023/05/30 17:03:04;;;;;;;3.65;1.35;;;;;;;21.67;29.28;100419.34;10541139;28;20052;-60
2023/05/30 17:08:07;;;;;;;8.45;1.40;;;;;;;21.66;29.28;100422.97;10527059;28;20561;-60
2023/05/30 17:13:10;;;;;;;2.15;1.20;;;;;;;21.47;30.32;100412.47;10548118;28;20508;-60
2023/05/30 17:18:12;;;;;;;2.20;1.38;;;;;;;21.47;30.22;100417.81;10544778;28;20044;-60
2023/05/30 17:23:14;;;;;;;2.83;1.23;;;;;;;21.63;30.15;100417.97;10545524;28;20042;-60
2023/05/30 17:28:16;;;;;;;3.42;1.50;;;;;;;21.60;30.55;100430.72;10542169;28;20124;-60
2023/05/30 17:33:18;;;;;;;2.53;1.20;;;;;;;21.54;30.45;100431.31;10546407;28;20509;-61
2023/05/30 17:38:20;;;;;;;4.90;1.42;;;;;;;21.42;30.84;100425.38;10543332;28;20146;-61
2023/05/30 17:43:22;;;;;;;2.42;1.35;;;;;;;21.16;31.18;100416.41;10540587;28;20054;-60
2023/05/30 17:48:25;;;;;;;4.93;1.30;;;;;;;21.06;31.44;100426.25;10533692;28;20040;-60
2023/05/30 17:53:27;;;;;;;4.72;1.30;;;;;;;21.04;31.34;100422.88;10538102;28;20043;-60
2023/05/30 17:58:29;;;;;;;3.35;1.30;;;;;;;21.05;31.74;100430.72;10541007;28;20038;-60
2023/05/30 18:03:31;;;;;;;2.97;1.60;;;;;;;20.80;32.31;100444.69;10543058;28;20525;-60
2023/05/30 18:08:34;;;;;;;3.40;1.58;;;;;;;20.56;33.26;100430.97;10539762;27;20177;-60
2023/05/30 18:13:36;;;;;;;4.63;1.52;;;;;;;20.63;32.57;100447.22;10546669;27;20057;-61
2023/05/30 18:18:39;;;;;;;3.25;1.40;;;;;;;20.43;33.18;100449.06;10531181;27;20044;-59
2023/05/30 18:23:41;;;;;;;2.35;1.38;;;;;;;20.31;33.04;100460.81;10546162;28;20070;-60
2023/05/30 18:28:43;;;;;;;3.90;1.60;;;;;;;20.32;33.34;100467.78;10549388;27;20813;-60
2023/05/30 18:33:45;;;;;;;2.50;1.30;;;;;;;20.29;33.61;100463.59;10531641;27;20384;-60
2023/05/30 18:38:47;;;;;;;3.13;1.30;;;;;;;20.07;33.80;100458.56;10548738;28;20048;-60
2023/05/30 18:43:50;;;;;;;3.35;1.30;;;;;;;19.94;34.52;100459.81;10528516;27;20054;-60
2023/05/30 18:48:53;;;;;;;3.85;1.50;;;;;;;19.71;34.64;100466.31;10544973;27;20282;-60
2023/05/30 18:53:56;;;;;;;3.10;1.38;;;;;;;19.54;34.81;100467.84;10550382;27;20048;-60
2023/05/30 18:58:58;;;;;;;4.57;1.60;;;;;;;19.37;35.27;100466.66;10528210;27;20055;-60
2023/05/30 19:04:00;;;;;;;2.75;1.30;;;;;;;19.30;35.45;100473.47;10548381;28;20040;-60
2023/05/30 19:09:03;;;;;;;2.05;1.10;;;;;;;19.15;35.98;100469.50;10547960;28;20044;-59
2023/05/30 19:14:05;;;;;;;2.35;1.33;;;;;;;19.05;36.20;100478.38;10550185;28;20058;-59
2023/05/30 19:19:07;;;;;;;1.63;1.05;;;;;;;18.90;36.39;100483.16;10528806;27;20043;-60
2023/05/30 19:24:09;;;;;;;3.35;1.40;;;;;;;18.80;36.52;100476.13;10548990;27;20047;-59
2023/05/30 19:29:11;;;;;;;1.65;1.15;;;;;;;18.82;36.68;100475.03;10518555;27;20633;-59
2023/05/30 19:34:13;;;;;;;3.33;1.40;;;;;;;18.66;37.27;100477.28;10550587;27;20070;-59
2023/05/30 19:39:16;;;;;;;2.88;1.48;;;;;;;18.56;37.07;100485.16;10545133;28;20043;-58
2023/05/30 19:44:18;;;;;;;3.50;1.75;;;;;;;18.48;37.32;100489.44;10545487;28;20066;-60
2023/05/30 19:49:20;;;;;;;2.10;1.33;;;;;;;18.36;37.18;100495.75;10547235;27;20660;-60
2023/05/30 19:54:22;;;;;;;1.52;1.10;;;;;;;18.20;37.99;100506.75;10529619;28;20965;-60
2023/05/30 19:59:24;;;;;;;2.28;1.30;;;;;;;17.91;38.12;100510.94;10547273;28;20121;-60
2023/05/30 20:04:26;;;;;;;2.95;1.30;;;;;;;17.73;38.73;100515.88;10546702;28;20051;-60
2023/05/30 20:09:28;;;;;;;3.38;1.48;;;;;;;17.64;38.50;100513.13;10541190;28;20039;-60
2023/05/30 20:14:31;;;;;;;2.40;1.33;;;;;;;17.52;38.76;100530.84;10547631;28;20508;-60
2023/05/30 20:19:33;;;;;;;2.72;1.30;;;;;;;17.53;39.13;100531.66;10547594;27;20058;-60
2023/05/30 20:24:36;;;;;;;2.08;1.30;;;;;;;17.47;39.24;100521.56;10549865;27;20416;-60
2023/05/30 20:29:38;;;;;;;3.03;1.42;;;;;;;17.43;39.73;100541.28;10545739;27;20043;-59
2023/05/30 20:34:40;;;;;;;2.47;1.20;;;;;;;17.08;39.99;100546.63;10549509;28;20047;-60
2023/05/30 20:39:42;;;;;;;5.93;1.58;;;;;;;17.09;40.19;100542.19;10529195;28;20047;-60
2023/05/30 20:44:45;;;;;;;2.13;1.38;;;;;;;16.87;40.46;100551.75;10543666;28;20048;-61
2023/05/30 20:49:47;;;;;;;3.47;1.67;;;;;;;16.86;40.53;100544.78;10518734;28;20040;-61
2023/05/30 20:54:48;;;;;;;2.22;1.10;;;;;;;16.72;41.02;100546.78;10546939;28;20043;-60
2023/05/30 20:59:52;;;;;;;3.97;1.50;;;;;;;16.77;40.88;100557.84;10538066;28;20145;-59
2023/05/30 21:04:53;;;;;;;4.15;1.27;;;;;;;16.65;41.31;100558.78;10540748;28;20040;-59
2023/05/30 21:09:55;;;;;;;3.63;1.58;;;;;;;16.47;41.49;100555.69;10536217;27;20054;-61
2023/05/30 21:14:57;;;;;;;1.77;1.30;;;;;;;16.32;41.96;100566.53;10545408;28;20039;-59
2023/05/30 21:19:59;;;;;;;2.78;1.50;;;;;;;16.22;42.01;100569.00;10538695;28;20051;-59
2023/05/30 21:25:01;;;;;;;3.00;1.30;;;;;;;16.18;42.03;100575.47;10491607;28;20047;-59
2023/05/30 21:30:04;;;;;;;3.58;1.52;;;;;;;16.12;42.08;100568.81;10533792;28;20062;-59
2023/05/30 21:35:06;;;;;;;4.55;1.50;;;;;;;16.04;42.12;100576.44;10543404;28;20513;-59
2023/05/30 21:40:08;;;;;;;2.58;1.20;;;;;;;15.84;42.69;100569.09;10547086;28;20047;-59
2023/05/30 21:45:10;;;;;;;2.63;1.50;;;;;;;15.86;42.84;100566.34;10549453;27;20434;-59
2023/05/30 21:50:12;;;;;;;1.98;1.25;;;;;;;15.89;43.07;100574.91;10546442;27;20050;-59
2023/05/30 21:55:14;;;;;;;4.13;1.50;;;;;;;15.74;43.36;100576.00;10549335;27;20042;-59
2023/05/30 22:00:16;;;;;;;2.90;1.40;;;;;;;15.63;43.60;100572.44;10547792;27;20250;-59
2023/05/30 22:05:18;;;;;;;2.47;1.33;;;;;;;15.47;43.87;100569.97;10534043;27;20047;-59
2023/05/30 22:10:20;;;;;;;5.30;1.48;;;;;;;15.58;43.94;100583.31;10552199;28;20040;-59
2023/05/30 22:15:22;;;;;;;4.13;1.40;;;;;;;15.66;44.27;100588.88;10548250;27;20495;-59
2023/05/30 22:20:24;;;;;;;5.22;1.40;;;;;;;15.59;44.00;100584.97;10546146;27;20434;-59
2023/05/30 22:25:28;;;;;;;5.32;1.67;;;;;;;15.63;44.30;100590.91;10552289;27;20043;-59
2023/05/30 22:30:29;;;;;;;2.97;1.50;;;;;;;15.59;44.54;100587.59;10548271;27;20040;-59
2023/05/30 22:35:32;;;;;;;3.83;1.90;;;;;;;15.18;45.09;100592.25;10552612;28;20141;-59
2023/05/30 22:40:34;;;;;;;3.10;1.50;;;;;;;14.76;45.51;100589.88;10552940;28;20061;-58
2023/05/30 22:45:36;;;;;;;2.47;1.40;;;;;;;14.78;45.71;100591.44;10543659;27;20063;-59
2023/05/30 22:50:38;;;;;;;2.95;1.83;;;;;;;14.64;46.30;100588.88;10551307;27;20044;-59
2023/05/30 22:55:40;;;;;;;2.67;1.40;;;;;;;14.66;46.21;100581.72;10530368;28;20122;-59
2023/05/30 23:00:42;;;;;;;3.05;1.50;;;;;;;14.64;46.68;100596.78;10551030;27;20043;-59
2023/05/30 23:05:44;;;;;;;4.90;1.60;;;;;;;14.39;46.75;100589.63;10549468;27;20142;-59
2023/05/30 23:10:46;;;;;;;5.15;1.70;;;;;;;14.33;47.39;100592.63;10552207;27;20150;-59
2023/05/30 23:15:48;;;;;;;3.28;1.60;;;;;;;14.49;47.10;100590.72;10547878;27;20043;-59